Huvudsida
METAR-TAF:

METAR-TAF

Flygplatser :

Draugen, Norge

latitud: 64-21-20N, longitud: 007-47-30E, höjd: 0 m

Aktuellt väderrapport

Denna rapport gjordes för 18 minuter sedan, klockan 05:50 UTC
Vind 33 kt från väst
Temperatur 9°C
Fuktighet 93%
Tryck 976 hPa

METAR: ENDR 220550Z AUTO 28033KT 09/08 Q0976

Tid: 08:08 (06:08 UTC)


TAF: saknas

Aktuella väderrapporter och prognoser från 4000 flygplatser (METAR- och TAF-rapporter).

De tillgängliga stationerna syns som gula och röda prickar på kartan.

För musen över prickarna för att se namnen på stationerna.

Klicka sedan för att få väderrapporter och prognoser.

För att ändra kartan: Klicka på de gröna knapparna med ett svart kors på för att zooma in; den gröna knappen med ett streck på för att zooma ut; eller på de gröna pilarna för angränsande kartor.


METAR-TAF: